sensor_id;sensor_type;location;lat;lon;timestamp;temperature;humidity
2465;DHT22;1244;54.326;10.074;2023-11-22T00:00:22;1.10;99.90
2465;DHT22;1244;54.326;10.074;2023-11-22T00:02:48;1.10;99.90
2465;DHT22;1244;54.326;10.074;2023-11-22T00:05:13;1.20;99.90
2465;DHT22;1244;54.326;10.074;2023-11-22T00:07:39;1.20;99.90
2465;DHT22;1244;54.326;10.074;2023-11-22T00:10:05;1.20;99.90
2465;DHT22;1244;54.326;10.074;2023-11-22T00:12:31;1.30;99.90
2465;DHT22;1244;54.326;10.074;2023-11-22T00:15:03;1.30;99.90
2465;DHT22;1244;54.326;10.074;2023-11-22T00:17:29;1.40;99.90
2465;DHT22;1244;54.326;10.074;2023-11-22T00:19:55;1.40;99.90
2465;DHT22;1244;54.326;10.074;2023-11-22T00:22:20;1.40;99.90
2465;DHT22;1244;54.326;10.074;2023-11-22T00:24:46;1.40;99.90
2465;DHT22;1244;54.326;10.074;2023-11-22T00:27:15;1.40;99.90
2465;DHT22;1244;54.326;10.074;2023-11-22T00:29:41;1.20;99.90
2465;DHT22;1244;54.326;10.074;2023-11-22T00:32:07;1.20;99.90
2465;DHT22;1244;54.326;10.074;2023-11-22T00:34:33;1.20;99.90
2465;DHT22;1244;54.326;10.074;2023-11-22T00:36:58;1.10;99.90
2465;DHT22;1244;54.326;10.074;2023-11-22T00:39:24;1.10;99.90
2465;DHT22;1244;54.326;10.074;2023-11-22T00:41:49;1.00;99.90
2465;DHT22;1244;54.326;10.074;2023-11-22T00:44:15;0.90;99.90
2465;DHT22;1244;54.326;10.074;2023-11-22T00:46:40;0.80;99.90
2465;DHT22;1244;54.326;10.074;2023-11-22T00:49:07;0.80;99.90
2465;DHT22;1244;54.326;10.074;2023-11-22T00:51:33;0.80;99.90
2465;DHT22;1244;54.326;10.074;2023-11-22T00:53:59;0.80;99.90
2465;DHT22;1244;54.326;10.074;2023-11-22T00:56:25;0.80;99.90
2465;DHT22;1244;54.326;10.074;2023-11-22T00:58:51;0.70;99.90
2465;DHT22;1244;54.326;10.074;2023-11-22T01:01:17;0.80;99.90
2465;DHT22;1244;54.326;10.074;2023-11-22T01:03:43;0.80;99.90
2465;DHT22;1244;54.326;10.074;2023-11-22T01:06:09;0.80;99.90
2465;DHT22;1244;54.326;10.074;2023-11-22T01:08:35;0.90;99.90
2465;DHT22;1244;54.326;10.074;2023-11-22T01:11:01;1.10;99.90
2465;DHT22;1244;54.326;10.074;2023-11-22T01:13:29;1.00;99.90
2465;DHT22;1244;54.326;10.074;2023-11-22T01:15:55;0.80;99.90
2465;DHT22;1244;54.326;10.074;2023-11-22T01:18:20;0.80;99.90
2465;DHT22;1244;54.326;10.074;2023-11-22T01:20:46;0.80;99.90
2465;DHT22;1244;54.326;10.074;2023-11-22T01:23:11;0.90;99.90
2465;DHT22;1244;54.326;10.074;2023-11-22T01:25:37;0.90;99.90
2465;DHT22;1244;54.326;10.074;2023-11-22T01:28:03;1.10;99.90
2465;DHT22;1244;54.326;10.074;2023-11-22T01:30:29;1.00;99.90
2465;DHT22;1244;54.326;10.074;2023-11-22T01:32:54;0.90;99.90
2465;DHT22;1244;54.326;10.074;2023-11-22T01:35:20;0.90;99.90
2465;DHT22;1244;54.326;10.074;2023-11-22T01:37:46;0.80;99.90
2465;DHT22;1244;54.326;10.074;2023-11-22T01:40:12;0.70;99.90
2465;DHT22;1244;54.326;10.074;2023-11-22T01:42:38;0.70;99.90
2465;DHT22;1244;54.326;10.074;2023-11-22T01:45:06;0.90;99.90
2465;DHT22;1244;54.326;10.074;2023-11-22T01:47:32;1.00;99.90
2465;DHT22;1244;54.326;10.074;2023-11-22T01:49:57;0.90;99.90
2465;DHT22;1244;54.326;10.074;2023-11-22T01:52:23;0.90;99.90
2465;DHT22;1244;54.326;10.074;2023-11-22T01:54:49;0.80;99.90
2465;DHT22;1244;54.326;10.074;2023-11-22T01:57:14;0.80;99.90
2465;DHT22;1244;54.326;10.074;2023-11-22T01:59:41;0.60;99.90
2465;DHT22;1244;54.326;10.074;2023-11-22T02:02:08;0.50;99.90
2465;DHT22;1244;54.326;10.074;2023-11-22T02:04:34;0.40;99.90
2465;DHT22;1244;54.326;10.074;2023-11-22T02:06:59;0.50;99.90
2465;DHT22;1244;54.326;10.074;2023-11-22T02:09:25;0.60;99.90
2465;DHT22;1244;54.326;10.074;2023-11-22T02:11:50;0.50;99.90
2465;DHT22;1244;54.326;10.074;2023-11-22T02:14:16;0.60;99.90
2465;DHT22;1244;54.326;10.074;2023-11-22T02:16:42;0.70;99.90
2465;DHT22;1244;54.326;10.074;2023-11-22T02:19:14;0.90;99.90
2465;DHT22;1244;54.326;10.074;2023-11-22T02:21:41;0.90;99.90
2465;DHT22;1244;54.326;10.074;2023-11-22T02:24:07;1.00;99.90
2465;DHT22;1244;54.326;10.074;2023-11-22T02:26:33;1.10;99.90
2465;DHT22;1244;54.326;10.074;2023-11-22T02:28:59;1.00;99.90
2465;DHT22;1244;54.326;10.074;2023-11-22T02:31:24;1.00;99.90
2465;DHT22;1244;54.326;10.074;2023-11-22T02:33:50;1.00;99.90
2465;DHT22;1244;54.326;10.074;2023-11-22T02:36:16;0.90;99.90
2465;DHT22;1244;54.326;10.074;2023-11-22T02:38:41;0.90;99.90
2465;DHT22;1244;54.326;10.074;2023-11-22T02:41:09;0.80;99.90
2465;DHT22;1244;54.326;10.074;2023-11-22T02:43:34;0.80;99.90
2465;DHT22;1244;54.326;10.074;2023-11-22T02:46:01;0.80;99.90
2465;DHT22;1244;54.326;10.074;2023-11-22T02:48:26;0.70;99.90
2465;DHT22;1244;54.326;10.074;2023-11-22T02:50:52;0.60;99.90
2465;DHT22;1244;54.326;10.074;2023-11-22T02:53:19;0.70;99.90
2465;DHT22;1244;54.326;10.074;2023-11-22T02:55:45;0.70;99.90
2465;DHT22;1244;54.326;10.074;2023-11-22T02:58:11;0.70;99.90
2465;DHT22;1244;54.326;10.074;2023-11-22T03:00:39;0.70;99.90
2465;DHT22;1244;54.326;10.074;2023-11-22T03:03:05;0.70;99.90
2465;DHT22;1244;54.326;10.074;2023-11-22T03:05:35;0.80;99.90
2465;DHT22;1244;54.326;10.074;2023-11-22T03:08:02;0.80;99.90
2465;DHT22;1244;54.326;10.074;2023-11-22T03:10:28;0.90;99.90
2465;DHT22;1244;54.326;10.074;2023-11-22T03:12:55;1.00;99.90
2465;DHT22;1244;54.326;10.074;2023-11-22T03:15:20;1.00;99.90
2465;DHT22;1244;54.326;10.074;2023-11-22T03:17:46;0.90;99.90
2465;DHT22;1244;54.326;10.074;2023-11-22T03:20:13;0.90;99.90
2465;DHT22;1244;54.326;10.074;2023-11-22T03:22:41;1.00;99.90
2465;DHT22;1244;54.326;10.074;2023-11-22T03:25:09;1.10;99.90
2465;DHT22;1244;54.326;10.074;2023-11-22T03:27:36;1.10;99.90
2465;DHT22;1244;54.326;10.074;2023-11-22T03:30:01;1.20;99.90
2465;DHT22;1244;54.326;10.074;2023-11-22T03:32:27;1.10;99.90
2465;DHT22;1244;54.326;10.074;2023-11-22T03:34:53;1.10;99.90
2465;DHT22;1244;54.326;10.074;2023-11-22T03:37:19;1.10;99.90
2465;DHT22;1244;54.326;10.074;2023-11-22T03:39:44;1.20;99.90
2465;DHT22;1244;54.326;10.074;2023-11-22T03:42:17;1.20;99.90
2465;DHT22;1244;54.326;10.074;2023-11-22T03:44:43;1.20;99.90
2465;DHT22;1244;54.326;10.074;2023-11-22T03:47:10;0.90;99.90
2465;DHT22;1244;54.326;10.074;2023-11-22T03:49:36;0.90;99.90
2465;DHT22;1244;54.326;10.074;2023-11-22T03:52:01;0.80;99.90
2465;DHT22;1244;54.326;10.074;2023-11-22T03:54:27;0.80;99.90
2465;DHT22;1244;54.326;10.074;2023-11-22T03:56:53;0.90;99.90
2465;DHT22;1244;54.326;10.074;2023-11-22T03:59:18;0.90;99.90
2465;DHT22;1244;54.326;10.074;2023-11-22T04:01:44;1.00;99.90
2465;DHT22;1244;54.326;10.074;2023-11-22T04:04:09;0.90;99.90
2465;DHT22;1244;54.326;10.074;2023-11-22T04:06:35;0.90;99.90
2465;DHT22;1244;54.326;10.074;2023-11-22T04:09:01;0.80;99.90
2465;DHT22;1244;54.326;10.074;2023-11-22T04:11:27;0.80;99.90
2465;DHT22;1244;54.326;10.074;2023-11-22T04:13:54;0.90;99.90
2465;DHT22;1244;54.326;10.074;2023-11-22T04:16:20;0.70;99.90
2465;DHT22;1244;54.326;10.074;2023-11-22T04:18:45;0.50;99.90
2465;DHT22;1244;54.326;10.074;2023-11-22T04:21:11;0.50;99.90
2465;DHT22;1244;54.326;10.074;2023-11-22T04:23:36;0.50;99.90
2465;DHT22;1244;54.326;10.074;2023-11-22T04:26:02;0.50;99.90
2465;DHT22;1244;54.326;10.074;2023-11-22T04:28:28;0.50;99.90
2465;DHT22;1244;54.326;10.074;2023-11-22T04:30:57;0.60;99.90
2465;DHT22;1244;54.326;10.074;2023-11-22T04:33:23;0.50;99.90
2465;DHT22;1244;54.326;10.074;2023-11-22T04:35:48;0.50;99.90
2465;DHT22;1244;54.326;10.074;2023-11-22T04:38:14;0.70;99.90
2465;DHT22;1244;54.326;10.074;2023-11-22T04:40:40;0.60;99.90
2465;DHT22;1244;54.326;10.074;2023-11-22T04:43:05;0.60;99.90
2465;DHT22;1244;54.326;10.074;2023-11-22T04:45:30;0.60;99.90
2465;DHT22;1244;54.326;10.074;2023-11-22T04:47:56;0.60;99.90
2465;DHT22;1244;54.326;10.074;2023-11-22T04:50:25;0.70;99.90
2465;DHT22;1244;54.326;10.074;2023-11-22T04:52:50;0.70;99.90
2465;DHT22;1244;54.326;10.074;2023-11-22T04:55:16;0.80;99.90
2465;DHT22;1244;54.326;10.074;2023-11-22T04:57:42;0.80;99.90
2465;DHT22;1244;54.326;10.074;2023-11-22T05:00:08;0.80;99.90
2465;DHT22;1244;54.326;10.074;2023-11-22T05:02:35;0.80;99.90
2465;DHT22;1244;54.326;10.074;2023-11-22T05:05:00;0.70;99.90
2465;DHT22;1244;54.326;10.074;2023-11-22T05:07:26;0.70;99.90
2465;DHT22;1244;54.326;10.074;2023-11-22T05:09:51;0.70;99.90
2465;DHT22;1244;54.326;10.074;2023-11-22T05:12:17;0.60;99.90
2465;DHT22;1244;54.326;10.074;2023-11-22T05:14:43;0.50;99.90
2465;DHT22;1244;54.326;10.074;2023-11-22T05:17:11;0.70;99.90
2465;DHT22;1244;54.326;10.074;2023-11-22T05:19:40;0.50;99.90
2465;DHT22;1244;54.326;10.074;2023-11-22T05:22:05;0.40;99.90
2465;DHT22;1244;54.326;10.074;2023-11-22T05:24:31;0.30;99.90
2465;DHT22;1244;54.326;10.074;2023-11-22T05:26:56;0.20;99.90
2465;DHT22;1244;54.326;10.074;2023-11-22T05:29:22;0.20;99.90
2465;DHT22;1244;54.326;10.074;2023-11-22T05:31:48;0.20;99.90
2465;DHT22;1244;54.326;10.074;2023-11-22T05:34:13;0.10;99.90
2465;DHT22;1244;54.326;10.074;2023-11-22T05:36:39;0.20;99.90
2465;DHT22;1244;54.326;10.074;2023-11-22T05:39:05;0.30;99.90
2465;DHT22;1244;54.326;10.074;2023-11-22T05:41:31;0.30;99.90
2465;DHT22;1244;54.326;10.074;2023-11-22T05:43:57;0.30;99.90
2465;DHT22;1244;54.326;10.074;2023-11-22T05:46:23;0.30;99.90
2465;DHT22;1244;54.326;10.074;2023-11-22T05:48:50;0.30;99.90
2465;DHT22;1244;54.326;10.074;2023-11-22T05:51:16;0.40;99.90
2465;DHT22;1244;54.326;10.074;2023-11-22T05:53:42;0.30;99.90
2465;DHT22;1244;54.326;10.074;2023-11-22T05:56:08;0.30;99.90
2465;DHT22;1244;54.326;10.074;2023-11-22T05:58:37;0.40;99.90
2465;DHT22;1244;54.326;10.074;2023-11-22T06:01:07;0.50;99.90
2465;DHT22;1244;54.326;10.074;2023-11-22T06:03:34;0.60;99.90
2465;DHT22;1244;54.326;10.074;2023-11-22T06:06:00;0.70;99.90
2465;DHT22;1244;54.326;10.074;2023-11-22T06:08:25;0.60;99.90
2465;DHT22;1244;54.326;10.074;2023-11-22T06:10:51;0.60;99.90
2465;DHT22;1244;54.326;10.074;2023-11-22T06:13:18;0.70;99.90
2465;DHT22;1244;54.326;10.074;2023-11-22T06:15:44;0.70;99.90
2465;DHT22;1244;54.326;10.074;2023-11-22T06:18:10;0.60;99.90
2465;DHT22;1244;54.326;10.074;2023-11-22T06:20:35;0.70;99.90
2465;DHT22;1244;54.326;10.074;2023-11-22T06:23:04;0.80;99.90
2465;DHT22;1244;54.326;10.074;2023-11-22T06:25:30;0.80;99.90
2465;DHT22;1244;54.326;10.074;2023-11-22T06:27:55;0.90;99.90
2465;DHT22;1244;54.326;10.074;2023-11-22T06:30:21;0.90;99.90
2465;DHT22;1244;54.326;10.074;2023-11-22T06:32:47;1.00;99.90
2465;DHT22;1244;54.326;10.074;2023-11-22T06:35:12;1.10;99.90
2465;DHT22;1244;54.326;10.074;2023-11-22T06:37:43;1.10;99.90
2465;DHT22;1244;54.326;10.074;2023-11-22T06:40:10;1.10;99.90
2465;DHT22;1244;54.326;10.074;2023-11-22T06:42:37;1.10;99.90
2465;DHT22;1244;54.326;10.074;2023-11-22T06:45:04;1.20;99.90
2465;DHT22;1244;54.326;10.074;2023-11-22T06:47:32;1.30;99.90
2465;DHT22;1244;54.326;10.074;2023-11-22T06:49:57;1.30;99.90
2465;DHT22;1244;54.326;10.074;2023-11-22T06:52:23;1.30;99.90
2465;DHT22;1244;54.326;10.074;2023-11-22T06:54:49;1.30;99.90
2465;DHT22;1244;54.326;10.074;2023-11-22T06:57:15;1.30;99.90
2465;DHT22;1244;54.326;10.074;2023-11-22T06:59:40;1.30;99.90
2465;DHT22;1244;54.326;10.074;2023-11-22T07:02:06;1.30;99.90
2465;DHT22;1244;54.326;10.074;2023-11-22T07:04:32;1.40;99.90
2465;DHT22;1244;54.326;10.074;2023-11-22T07:06:58;1.40;99.90
2465;DHT22;1244;54.326;10.074;2023-11-22T07:09:24;1.30;99.90
2465;DHT22;1244;54.326;10.074;2023-11-22T07:11:50;1.30;99.90
2465;DHT22;1244;54.326;10.074;2023-11-22T07:14:17;1.30;99.90
2465;DHT22;1244;54.326;10.074;2023-11-22T07:16:42;1.30;99.90
2465;DHT22;1244;54.326;10.074;2023-11-22T07:19:08;1.30;99.90
2465;DHT22;1244;54.326;10.074;2023-11-22T07:21:33;1.20;99.90
2465;DHT22;1244;54.326;10.074;2023-11-22T07:24:03;1.20;99.90
2465;DHT22;1244;54.326;10.074;2023-11-22T07:26:28;1.30;99.90
2465;DHT22;1244;54.326;10.074;2023-11-22T07:28:55;1.30;99.90
2465;DHT22;1244;54.326;10.074;2023-11-22T07:31:21;1.30;99.90
2465;DHT22;1244;54.326;10.074;2023-11-22T07:33:47;1.30;99.90
2465;DHT22;1244;54.326;10.074;2023-11-22T07:36:13;1.40;99.90
2465;DHT22;1244;54.326;10.074;2023-11-22T07:38:40;1.40;99.90
2465;DHT22;1244;54.326;10.074;2023-11-22T07:41:06;1.40;99.90
2465;DHT22;1244;54.326;10.074;2023-11-22T07:43:32;1.40;99.90
2465;DHT22;1244;54.326;10.074;2023-11-22T07:45:58;1.40;99.90
2465;DHT22;1244;54.326;10.074;2023-11-22T07:48:25;1.40;99.90
2465;DHT22;1244;54.326;10.074;2023-11-22T07:50:50;1.50;99.90
2465;DHT22;1244;54.326;10.074;2023-11-22T07:53:17;1.50;99.90
2465;DHT22;1244;54.326;10.074;2023-11-22T07:55:42;1.50;99.90
2465;DHT22;1244;54.326;10.074;2023-11-22T07:58:08;1.50;99.90
2465;DHT22;1244;54.326;10.074;2023-11-22T08:00:34;1.50;99.90
2465;DHT22;1244;54.326;10.074;2023-11-22T08:03:02;1.40;99.90
2465;DHT22;1244;54.326;10.074;2023-11-22T08:05:29;1.50;99.90
2465;DHT22;1244;54.326;10.074;2023-11-22T08:08:01;1.50;99.90
2465;DHT22;1244;54.326;10.074;2023-11-22T08:10:27;1.50;99.90
2465;DHT22;1244;54.326;10.074;2023-11-22T08:12:53;1.50;99.90
2465;DHT22;1244;54.326;10.074;2023-11-22T08:15:18;1.50;99.90
2465;DHT22;1244;54.326;10.074;2023-11-22T08:17:45;1.50;99.90
2465;DHT22;1244;54.326;10.074;2023-11-22T08:20:10;1.50;99.90
2465;DHT22;1244;54.326;10.074;2023-11-22T08:22:39;1.50;99.90
2465;DHT22;1244;54.326;10.074;2023-11-22T08:25:06;1.50;99.90
2465;DHT22;1244;54.326;10.074;2023-11-22T08:27:33;1.50;99.90
2465;DHT22;1244;54.326;10.074;2023-11-22T08:29:59;1.50;99.90
2465;DHT22;1244;54.326;10.074;2023-11-22T08:32:26;1.50;99.90
2465;DHT22;1244;54.326;10.074;2023-11-22T08:34:56;1.50;99.90
2465;DHT22;1244;54.326;10.074;2023-11-22T08:37:21;1.50;99.90
2465;DHT22;1244;54.326;10.074;2023-11-22T08:39:47;1.40;99.90
2465;DHT22;1244;54.326;10.074;2023-11-22T08:42:12;1.50;99.90
2465;DHT22;1244;54.326;10.074;2023-11-22T08:44:39;1.60;99.90
2465;DHT22;1244;54.326;10.074;2023-11-22T08:47:05;1.60;99.90
2465;DHT22;1244;54.326;10.074;2023-11-22T08:49:30;1.60;99.90
2465;DHT22;1244;54.326;10.074;2023-11-22T08:51:56;1.60;99.90
2465;DHT22;1244;54.326;10.074;2023-11-22T08:54:24;1.60;99.90
2465;DHT22;1244;54.326;10.074;2023-11-22T08:56:50;1.60;99.90
2465;DHT22;1244;54.326;10.074;2023-11-22T08:59:15;1.60;99.90
2465;DHT22;1244;54.326;10.074;2023-11-22T09:01:42;1.70;99.90
2465;DHT22;1244;54.326;10.074;2023-11-22T09:04:11;1.70;99.90
2465;DHT22;1244;54.326;10.074;2023-11-22T09:06:36;1.70;99.90
2465;DHT22;1244;54.326;10.074;2023-11-22T09:09:03;1.70;99.90
2465;DHT22;1244;54.326;10.074;2023-11-22T09:11:28;1.70;99.90
2465;DHT22;1244;54.326;10.074;2023-11-22T09:13:55;1.70;99.90
2465;DHT22;1244;54.326;10.074;2023-11-22T09:16:22;1.80;99.90
2465;DHT22;1244;54.326;10.074;2023-11-22T09:18:50;1.80;99.90
2465;DHT22;1244;54.326;10.074;2023-11-22T09:21:16;1.80;99.90
2465;DHT22;1244;54.326;10.074;2023-11-22T09:23:42;1.80;99.90
2465;DHT22;1244;54.326;10.074;2023-11-22T09:26:08;1.90;99.90
2465;DHT22;1244;54.326;10.074;2023-11-22T09:28:33;1.90;99.90
2465;DHT22;1244;54.326;10.074;2023-11-22T09:30:59;2.00;99.90
2465;DHT22;1244;54.326;10.074;2023-11-22T09:33:31;1.90;99.90
2465;DHT22;1244;54.326;10.074;2023-11-22T09:35:57;1.90;99.90
2465;DHT22;1244;54.326;10.074;2023-11-22T09:38:26;2.00;99.90
2465;DHT22;1244;54.326;10.074;2023-11-22T09:40:51;2.00;99.90
2465;DHT22;1244;54.326;10.074;2023-11-22T09:43:17;2.00;99.90
2465;DHT22;1244;54.326;10.074;2023-11-22T09:45:43;2.10;99.90
2465;DHT22;1244;54.326;10.074;2023-11-22T09:50:44;2.10;99.90
2465;DHT22;1244;54.326;10.074;2023-11-22T09:53:19;2.10;99.90
2465;DHT22;1244;54.326;10.074;2023-11-22T09:55:47;2.10;99.90
2465;DHT22;1244;54.326;10.074;2023-11-22T09:58:12;2.20;99.90
2465;DHT22;1244;54.326;10.074;2023-11-22T10:00:40;2.20;99.90
2465;DHT22;1244;54.326;10.074;2023-11-22T10:03:06;2.20;99.90
2465;DHT22;1244;54.326;10.074;2023-11-22T10:05:31;2.20;99.90
2465;DHT22;1244;54.326;10.074;2023-11-22T10:07:57;2.30;99.90
2465;DHT22;1244;54.326;10.074;2023-11-22T10:10:22;2.30;99.90
2465;DHT22;1244;54.326;10.074;2023-11-22T10:12:55;2.30;99.90
2465;DHT22;1244;54.326;10.074;2023-11-22T10:15:21;2.40;99.90
2465;DHT22;1244;54.326;10.074;2023-11-22T10:17:52;2.40;99.90
2465;DHT22;1244;54.326;10.074;2023-11-22T10:20:22;2.40;99.90
2465;DHT22;1244;54.326;10.074;2023-11-22T10:22:47;2.40;99.90
2465;DHT22;1244;54.326;10.074;2023-11-22T10:25:15;2.40;99.90
2465;DHT22;1244;54.326;10.074;2023-11-22T10:27:47;2.50;99.90
2465;DHT22;1244;54.326;10.074;2023-11-22T10:30:13;2.50;99.90
2465;DHT22;1244;54.326;10.074;2023-11-22T10:32:40;2.50;99.90
2465;DHT22;1244;54.326;10.074;2023-11-22T10:35:06;2.50;99.90
2465;DHT22;1244;54.326;10.074;2023-11-22T10:37:33;2.50;99.90
2465;DHT22;1244;54.326;10.074;2023-11-22T10:39:59;2.60;99.90
2465;DHT22;1244;54.326;10.074;2023-11-22T10:42:24;2.60;99.90
2465;DHT22;1244;54.326;10.074;2023-11-22T10:44:50;2.70;99.90
2465;DHT22;1244;54.326;10.074;2023-11-22T10:47:16;2.70;99.90
2465;DHT22;1244;54.326;10.074;2023-11-22T10:49:44;2.80;99.90
2465;DHT22;1244;54.326;10.074;2023-11-22T10:52:10;2.80;99.90
2465;DHT22;1244;54.326;10.074;2023-11-22T10:54:38;2.80;99.90
2465;DHT22;1244;54.326;10.074;2023-11-22T10:57:05;2.80;99.90
2465;DHT22;1244;54.326;10.074;2023-11-22T10:59:31;2.90;99.90
2465;DHT22;1244;54.326;10.074;2023-11-22T11:01:58;2.90;99.90
2465;DHT22;1244;54.326;10.074;2023-11-22T11:04:39;3.00;99.90
2465;DHT22;1244;54.326;10.074;2023-11-22T11:07:08;3.00;99.90
2465;DHT22;1244;54.326;10.074;2023-11-22T11:09:37;3.00;99.90
2465;DHT22;1244;54.326;10.074;2023-11-22T11:12:04;3.00;99.90
2465;DHT22;1244;54.326;10.074;2023-11-22T11:14:30;3.00;99.90
2465;DHT22;1244;54.326;10.074;2023-11-22T11:16:56;3.10;99.90
2465;DHT22;1244;54.326;10.074;2023-11-22T11:19:23;3.10;99.90
2465;DHT22;1244;54.326;10.074;2023-11-22T11:21:50;3.20;99.90
2465;DHT22;1244;54.326;10.074;2023-11-22T11:24:16;3.20;99.90
2465;DHT22;1244;54.326;10.074;2023-11-22T11:26:49;3.30;99.90
2465;DHT22;1244;54.326;10.074;2023-11-22T11:29:34;3.40;99.90
2465;DHT22;1244;54.326;10.074;2023-11-22T11:32:03;3.30;99.90
2465;DHT22;1244;54.326;10.074;2023-11-22T11:34:28;3.30;99.90
2465;DHT22;1244;54.326;10.074;2023-11-22T11:36:54;3.40;99.90
2465;DHT22;1244;54.326;10.074;2023-11-22T11:39:25;3.40;99.90
2465;DHT22;1244;54.326;10.074;2023-11-22T11:41:53;3.40;99.90
2465;DHT22;1244;54.326;10.074;2023-11-22T11:44:32;3.40;99.90
2465;DHT22;1244;54.326;10.074;2023-11-22T11:46:58;3.40;99.90
2465;DHT22;1244;54.326;10.074;2023-11-22T11:49:24;3.40;99.90
2465;DHT22;1244;54.326;10.074;2023-11-22T11:51:50;3.40;99.90
2465;DHT22;1244;54.326;10.074;2023-11-22T11:54:16;3.40;99.90
2465;DHT22;1244;54.326;10.074;2023-11-22T11:56:41;3.50;99.90
2465;DHT22;1244;54.326;10.074;2023-11-22T11:59:08;3.50;99.90
2465;DHT22;1244;54.326;10.074;2023-11-22T12:01:35;3.40;99.90
2465;DHT22;1244;54.326;10.074;2023-11-22T12:04:01;3.50;99.90
2465;DHT22;1244;54.326;10.074;2023-11-22T12:06:28;3.50;99.90
2465;DHT22;1244;54.326;10.074;2023-11-22T12:08:54;3.50;99.90
2465;DHT22;1244;54.326;10.074;2023-11-22T12:11:19;3.40;99.90
2465;DHT22;1244;54.326;10.074;2023-11-22T12:13:45;3.40;99.90
2465;DHT22;1244;54.326;10.074;2023-11-22T12:16:13;3.40;99.90
2465;DHT22;1244;54.326;10.074;2023-11-22T12:21:05;3.40;99.90
2465;DHT22;1244;54.326;10.074;2023-11-22T12:23:32;3.40;99.90
2465;DHT22;1244;54.326;10.074;2023-11-22T12:25:57;3.40;99.90
2465;DHT22;1244;54.326;10.074;2023-11-22T12:28:24;3.40;99.90
2465;DHT22;1244;54.326;10.074;2023-11-22T12:30:49;3.40;99.90
2465;DHT22;1244;54.326;10.074;2023-11-22T12:33:16;3.40;99.90
2465;DHT22;1244;54.326;10.074;2023-11-22T12:35:43;3.40;99.90
2465;DHT22;1244;54.326;10.074;2023-11-22T12:38:09;3.40;99.90
2465;DHT22;1244;54.326;10.074;2023-11-22T12:40:35;3.40;99.90
2465;DHT22;1244;54.326;10.074;2023-11-22T12:43:01;3.40;99.90
2465;DHT22;1244;54.326;10.074;2023-11-22T12:45:27;3.40;99.90
2465;DHT22;1244;54.326;10.074;2023-11-22T12:47:56;3.40;99.90
2465;DHT22;1244;54.326;10.074;2023-11-22T12:50:37;3.40;99.90
2465;DHT22;1244;54.326;10.074;2023-11-22T12:53:09;3.40;99.90
2465;DHT22;1244;54.326;10.074;2023-11-22T12:55:36;3.40;99.90
2465;DHT22;1244;54.326;10.074;2023-11-22T12:58:01;3.40;99.90
2465;DHT22;1244;54.326;10.074;2023-11-22T13:00:29;3.40;99.90
2465;DHT22;1244;54.326;10.074;2023-11-22T13:02:55;3.40;99.90
2465;DHT22;1244;54.326;10.074;2023-11-22T13:05:28;3.40;99.90
2465;DHT22;1244;54.326;10.074;2023-11-22T13:07:53;3.40;99.90
2465;DHT22;1244;54.326;10.074;2023-11-22T13:10:19;3.30;99.90
2465;DHT22;1244;54.326;10.074;2023-11-22T13:12:49;3.40;99.90
2465;DHT22;1244;54.326;10.074;2023-11-22T13:15:15;3.40;99.90
2465;DHT22;1244;54.326;10.074;2023-11-22T13:17:41;3.40;99.90
2465;DHT22;1244;54.326;10.074;2023-11-22T13:20:07;3.40;99.90
2465;DHT22;1244;54.326;10.074;2023-11-22T13:22:40;3.40;99.90
2465;DHT22;1244;54.326;10.074;2023-11-22T13:25:07;3.40;99.90
2465;DHT22;1244;54.326;10.074;2023-11-22T13:27:33;3.40;99.90
2465;DHT22;1244;54.326;10.074;2023-11-22T13:29:58;3.40;99.90
2465;DHT22;1244;54.326;10.074;2023-11-22T13:32:24;3.30;99.90
2465;DHT22;1244;54.326;10.074;2023-11-22T13:34:51;3.40;99.90
2465;DHT22;1244;54.326;10.074;2023-11-22T13:37:23;3.40;99.90
2465;DHT22;1244;54.326;10.074;2023-11-22T13:39:49;3.40;99.90
2465;DHT22;1244;54.326;10.074;2023-11-22T13:42:14;3.40;99.90
2465;DHT22;1244;54.326;10.074;2023-11-22T13:44:40;3.40;99.90
2465;DHT22;1244;54.326;10.074;2023-11-22T13:47:06;3.40;99.90
2465;DHT22;1244;54.326;10.074;2023-11-22T13:49:33;3.40;99.90
2465;DHT22;1244;54.326;10.074;2023-11-22T13:51:59;3.40;99.90
2465;DHT22;1244;54.326;10.074;2023-11-22T13:54:24;3.40;99.90
2465;DHT22;1244;54.326;10.074;2023-11-22T13:56:50;3.30;99.90
2465;DHT22;1244;54.326;10.074;2023-11-22T13:59:15;3.40;99.90
2465;DHT22;1244;54.326;10.074;2023-11-22T14:01:41;3.40;99.90
2465;DHT22;1244;54.326;10.074;2023-11-22T14:04:07;3.30;99.90
2465;DHT22;1244;54.326;10.074;2023-11-22T14:06:32;3.40;99.90
2465;DHT22;1244;54.326;10.074;2023-11-22T14:08:58;3.40;99.90
2465;DHT22;1244;54.326;10.074;2023-11-22T14:11:23;3.30;99.90
2465;DHT22;1244;54.326;10.074;2023-11-22T14:13:49;3.40;99.90
2465;DHT22;1244;54.326;10.074;2023-11-22T14:16:14;3.40;99.90
2465;DHT22;1244;54.326;10.074;2023-11-22T14:18:40;3.30;99.90
2465;DHT22;1244;54.326;10.074;2023-11-22T14:21:06;3.40;99.90
2465;DHT22;1244;54.326;10.074;2023-11-22T14:23:31;3.40;99.90
2465;DHT22;1244;54.326;10.074;2023-11-22T14:25:58;3.40;99.90
2465;DHT22;1244;54.326;10.074;2023-11-22T14:28:24;3.40;99.90
2465;DHT22;1244;54.326;10.074;2023-11-22T14:30:49;3.40;99.90
2465;DHT22;1244;54.326;10.074;2023-11-22T14:33:20;3.40;99.90
2465;DHT22;1244;54.326;10.074;2023-11-22T14:35:45;3.50;99.90
2465;DHT22;1244;54.326;10.074;2023-11-22T14:38:10;3.50;99.90
2465;DHT22;1244;54.326;10.074;2023-11-22T14:40:37;3.40;99.90
2465;DHT22;1244;54.326;10.074;2023-11-22T14:43:04;3.50;99.90
2465;DHT22;1244;54.326;10.074;2023-11-22T14:45:30;3.40;99.90
2465;DHT22;1244;54.326;10.074;2023-11-22T14:47:56;3.40;99.90
2465;DHT22;1244;54.326;10.074;2023-11-22T14:50:22;3.40;99.90
2465;DHT22;1244;54.326;10.074;2023-11-22T14:52:50;3.40;99.90
2465;DHT22;1244;54.326;10.074;2023-11-22T14:55:16;3.40;99.90
2465;DHT22;1244;54.326;10.074;2023-11-22T14:57:43;3.40;99.90
2465;DHT22;1244;54.326;10.074;2023-11-22T15:00:09;3.40;99.90
2465;DHT22;1244;54.326;10.074;2023-11-22T15:02:38;3.40;99.90
2465;DHT22;1244;54.326;10.074;2023-11-22T15:05:04;3.40;99.90
2465;DHT22;1244;54.326;10.074;2023-11-22T15:07:30;3.40;99.90
2465;DHT22;1244;54.326;10.074;2023-11-22T15:09:56;3.40;99.90
2465;DHT22;1244;54.326;10.074;2023-11-22T15:12:21;3.40;99.90
2465;DHT22;1244;54.326;10.074;2023-11-22T15:14:47;3.50;99.90
2465;DHT22;1244;54.326;10.074;2023-11-22T15:17:13;3.50;99.90
2465;DHT22;1244;54.326;10.074;2023-11-22T15:19:39;3.40;99.90
2465;DHT22;1244;54.326;10.074;2023-11-22T15:22:06;3.50;99.90
2465;DHT22;1244;54.326;10.074;2023-11-22T15:24:32;3.40;99.90
2465;DHT22;1244;54.326;10.074;2023-11-22T15:26:57;3.50;99.90
2465;DHT22;1244;54.326;10.074;2023-11-22T15:29:23;3.40;99.90
2465;DHT22;1244;54.326;10.074;2023-11-22T15:31:48;3.40;99.90
2465;DHT22;1244;54.326;10.074;2023-11-22T15:34:14;3.40;99.90
2465;DHT22;1244;54.326;10.074;2023-11-22T15:36:39;3.40;99.90
2465;DHT22;1244;54.326;10.074;2023-11-22T15:39:05;3.40;99.90
2465;DHT22;1244;54.326;10.074;2023-11-22T15:41:31;3.40;99.90
2465;DHT22;1244;54.326;10.074;2023-11-22T15:43:56;3.40;99.90
2465;DHT22;1244;54.326;10.074;2023-11-22T15:46:22;3.40;99.90
2465;DHT22;1244;54.326;10.074;2023-11-22T15:48:50;3.40;99.90
2465;DHT22;1244;54.326;10.074;2023-11-22T15:51:15;3.40;99.90
2465;DHT22;1244;54.326;10.074;2023-11-22T15:53:42;3.40;99.90
2465;DHT22;1244;54.326;10.074;2023-11-22T15:56:07;3.30;99.90
2465;DHT22;1244;54.326;10.074;2023-11-22T15:58:40;3.30;99.90
2465;DHT22;1244;54.326;10.074;2023-11-22T16:01:07;3.30;99.90